Alexander, IL

10:28 PM CDT on May 24, 2015 (GMT -0500)
Smith Farms | | Change Station
CLOSE
Current Station
Personal Weather Station
Location: New Berlin, IL
Elevation: 656 ft
Nearby Weather Stations
Active Advisory: Tornado Watch

Elev 656 ft 39.72 °N, 89.92 °W | Updated 14 minutes ago

Mostly Cloudy
Mostly Cloudy
75.6 °F
Feels Like 77 °F
N
10.4
Wind Variable Wind from ESE

Today
High -- | Low -- °F
--% Chance of Precip.
Yesterday
High -- | Low -- °F
Precip. -- in
5:38 AM 8:15 PM
Waxing Crescent, 44% visible
Pressure 29.89 in
Visibility 10.0 miles
Clouds Scattered Clouds 4800 ft
Scattered Clouds 6000 ft
Scattered Clouds 12000 ft
Heat Index 77 °F
Dew Point 63 °F
Humidity 66%
Rainfall 0.03 in
Snow Depth Not available.
UV 0 out of 12
Pollen 8.00 out of 12
Air Quality Not available.
Flu Activity Sporadic
METAR KIJX 250315Z AUTO 00000KT 10SM SCT048 SCT060 SCT120 23/19 A2989 RMK AO2 T02250194

More Conditions Fewer Conditions

Pressure 29.89 in
Visibility 10.0 miles
Clouds Scattered Clouds 4800 ft
Scattered Clouds 6000 ft
Scattered Clouds 12000 ft
Heat Index 77 °F
Dew Point 63 °F
Humidity 66%
Rainfall 0.03 in
Snow Depth Not available.
UV 0 out of 12
Pollen 8.00 out of 12
Air Quality Not available.
Flu Activity Sporadic
METAR KIJX 250315Z AUTO 00000KT 10SM SCT048 SCT060 SCT120 23/19 A2989 RMK AO2 T02250194

More Conditions Fewer Conditions

10-Day Weather Forecast

Almanac

Astronomy

May. 24, 2015 Rise Set
Actual Time
Civil Twilight
Nautical Twilight
Astronomical Twilight
Moon
Length of Visible Light
Length of Day
Tomorrow will be .
, % of the Moon is Illuminated

Today's Extremes

State Highs State Lows

Community

WunderPhotos

Upload Photos

1,823,946 photos uploaded!

WunderBlogs® & News

Nearby

Air Quality

  Air Quality AQ Index Pollutant
Not available.

Snow Depth

Station Depth Elevation

Earthquake Activity

City Distance Mag. Time & Date
Minimum magnitude displayed is 2.5.

Coastal Water Temperatures

Place Temperature

Stations

Nearby Weather Stations

Station Location Temp. Windchill Dew Point Humidity Wind Precip. Elev Updated Type
                   
Tornado Watch
Statement as of 10:24 PM CDT on May 24, 2015

Tornado Watch 207 remains in effect until 100 am CDT for the
following locations


IL
. Illinois counties included are

Bureau Cass Christian
De Witt Fulton Knox
Logan McLean Macon
Marshall Mason Menard
Morgan Peoria Putnam
Sangamon Schuyler Scott
Stark Tazewell Woodford